createdAt,value
2023-05-31T00:03:24.705Z,3.03
2023-05-31T00:23:26.652Z,3.20
2023-05-31T00:43:28.421Z,3.17
2023-05-31T01:03:30.503Z,3.33
2023-05-31T01:23:32.767Z,3.38
2023-05-31T01:43:35.673Z,3.60
2023-05-31T02:03:37.392Z,3.83
2023-05-31T02:23:39.467Z,4.63
2023-05-31T02:43:41.497Z,4.53
2023-05-31T03:03:43.643Z,5.63
2023-05-31T03:23:57.340Z,5.18
2023-05-31T03:43:59.797Z,5.55
2023-05-31T04:04:02.232Z,4.78
2023-05-31T04:24:06.437Z,5.28
2023-05-31T04:44:08.383Z,4.88
2023-05-31T05:04:15.337Z,5.93
2023-05-31T05:24:18.107Z,5.10
2023-05-31T05:44:20.568Z,5.10
2023-05-31T06:04:22.740Z,6.68
2023-05-31T06:24:26.168Z,7.65
2023-05-31T06:44:28.704Z,6.97
2023-05-31T07:04:42.752Z,8.68
2023-05-31T07:24:44.720Z,7.07
2023-05-31T07:44:46.555Z,6.28
2023-05-31T08:04:48.369Z,5.15
2023-05-31T08:24:51.340Z,6.43
2023-05-31T08:44:53.384Z,5.82
2023-05-31T09:04:55.688Z,5.03
2023-05-31T09:24:57.465Z,4.60
2023-05-31T09:44:59.462Z,4.82
2023-05-31T10:05:01.455Z,4.38
2023-05-31T10:25:03.434Z,4.38
2023-05-31T10:45:05.229Z,4.50
2023-05-31T11:05:07.304Z,4.70
2023-05-31T11:25:09.173Z,4.80
2023-05-31T11:45:11.082Z,5.00
2023-05-31T12:05:12.764Z,4.40
2023-05-31T12:25:14.840Z,4.72
2023-05-31T12:45:16.517Z,4.65
2023-05-31T13:05:18.385Z,4.60
2023-05-31T13:25:20.277Z,4.85
2023-05-31T13:45:22.515Z,4.28
2023-05-31T14:05:26.307Z,4.15
2023-05-31T14:25:28.249Z,3.95
2023-05-31T14:45:30.025Z,4.10
2023-05-31T15:05:32.085Z,3.85
2023-05-31T15:25:33.866Z,4.47
2023-05-31T15:45:35.701Z,3.50
2023-05-31T16:05:37.563Z,3.60
2023-05-31T16:25:39.770Z,3.50
2023-05-31T16:45:41.452Z,3.17
2023-05-31T17:05:44.733Z,3.50
2023-05-31T17:25:46.502Z,4.50
2023-05-31T17:46:11.585Z,3.65
2023-05-31T18:06:27.409Z,3.45
2023-05-31T18:26:29.391Z,3.78
2023-05-31T18:46:31.176Z,3.63
2023-05-31T19:06:33.111Z,3.30
2023-05-31T19:26:34.772Z,3.50
2023-05-31T19:46:36.992Z,3.97
2023-05-31T20:06:39.731Z,4.05
2023-05-31T20:26:42.105Z,4.00
2023-05-31T20:46:43.852Z,4.75
2023-05-31T21:06:46.979Z,4.43
2023-05-31T21:26:48.699Z,4.53
2023-05-31T21:46:50.824Z,4.40
2023-05-31T22:06:52.496Z,4.00
2023-05-31T22:26:54.600Z,3.30
2023-05-31T22:46:56.419Z,3.60
2023-05-31T23:06:58.521Z,3.97
2023-05-31T23:27:00.276Z,3.10
2023-05-31T23:47:02.233Z,3.10
